North Utica, Illinois
Current Conditions -  °F | °C
As of 2:15 AM on Monday 22 Dec 2014 (Local Time) from KVYS Reporting Station
Haze Haze  
Wind Chill: 26°   Ceiling: 3500
Heat Index: 34°   Visibility: 5mi
Dew Point: 31°   Wind: 12mph
Humidity: 89%   Direction: 150°SSE
Pressure: 29.95"   Gusts: NA
Location:  41.3954°N, 88.9927°W
Report Text: KVYS 220815Z AUTO 15010KT 5SM BR BKN035 OVC050 01/00 A2995 RMK AO2 T00131003
Loading
Personal Weather Stations






























Interactive Weather Map New forecast layout! Learn more

10-Day Weather Forecast

Advertisements
Track Severe Weather on mobile